Time;durP1;ratioP1;P1;durP2;ratioP2;P2;SDS_P1;SDS_P2;PMS_P1;PMS_P2;Temp;Humidity;BMP_temperature;BMP_pressure;BME280_temperature;BME280_humidity;BME280_pressure;Samples;Min_cycle;Max_cycle;Signal;HPM_P1;HPM_P2
2022/02/04 00:07:36;;;;;;;12.77;2.25;;;9.00;99.90;;;;;;5016927;28;20049;-91
2022/02/04 00:21:21;;;;;;;9.27;1.38;;;9.10;99.90;;;;;;5015549;28;20057;-92
2022/02/04 00:23:43;;;;;;;3.22;0.88;;;9.10;99.90;;;;;;5002433;28;20093;-91
2022/02/04 00:26:16;;;;;;;11.68;1.58;;;9.10;99.90;;;;;;4987053;28;20029;-90
2022/02/04 00:28:54;;;;;;;12.23;1.52;;;9.10;99.90;;;;;;4982979;28;20030;-91
2022/02/04 00:31:33;;;;;;;11.20;2.05;;;9.10;99.90;;;;;;4984647;28;20507;-92
2022/02/04 00:34:13;;;;;;;11.68;1.60;;;9.10;99.90;;;;;;4988715;28;20029;-92
2022/02/04 00:36:46;;;;;;;7.25;1.35;;;9.10;99.90;;;;;;4998308;28;20042;-90
2022/02/04 00:39:18;;;;;;;6.25;1.20;;;9.00;99.90;;;;;;4989730;28;20124;-90
2022/02/04 00:41:45;;;;;;;9.15;1.15;;;9.00;99.90;;;;;;4993292;28;20022;-90
2022/02/04 00:44:19;;;;;;;13.70;1.55;;;9.00;99.90;;;;;;4998540;28;20061;-89
2022/02/04 00:47:04;;;;;;;12.73;1.80;;;9.00;99.90;;;;;;4999548;28;20065;-91
2022/02/04 00:50:00;;;;;;;10.85;1.60;;;9.10;99.90;;;;;;4999981;28;20017;-89
2022/02/04 00:54:55;;;;;;;12.80;2.03;;;9.00;99.90;;;;;;5016479;28;20390;-90
2022/02/04 01:06:28;;;;;;;11.88;1.77;;;9.00;99.90;;;;;;4998918;28;20029;-89
2022/02/04 01:27:27;;;;;;;0.80;0.30;;;8.10;99.90;;;;;;5018122;28;20095;-90
2022/02/04 01:30:02;;;;;;;2.30;0.60;;;8.00;99.90;;;;;;5001574;28;20022;-91
2022/02/04 01:32:28;;;;;;;1.95;0.60;;;7.90;99.90;;;;;;5004713;28;20026;-90
2022/02/04 01:34:54;;;;;;;3.15;0.45;;;7.80;99.90;;;;;;5004454;28;20075;-89
2022/02/04 01:37:20;;;;;;;0.68;0.28;;;7.80;99.90;;;;;;5000683;28;20057;-91
2022/02/04 01:39:46;;;;;;;1.35;0.60;;;7.70;99.90;;;;;;4997868;28;20034;-91
2022/02/04 01:42:12;;;;;;;0.40;0.40;;;7.70;99.90;;;;;;4997523;28;20026;-90
2022/02/04 01:44:38;;;;;;;1.95;0.50;;;7.50;99.90;;;;;;4997791;28;20141;-91
2022/02/04 01:47:08;;;;;;;1.08;0.45;;;7.50;99.90;;;;;;4998080;28;20463;-90
2022/02/04 01:49:36;;;;;;;0.32;0.32;;;7.50;99.90;;;;;;4997522;28;20037;-90
2022/02/04 01:52:03;;;;;;;0.68;0.50;;;7.40;99.90;;;;;;5000105;28;20080;-89
2022/02/04 01:54:29;;;;;;;1.30;0.20;;;7.40;99.90;;;;;;5001086;28;20033;-90
2022/02/04 01:56:55;;;;;;;0.30;0.30;;;7.40;99.90;;;;;;4997604;28;20029;-90
2022/02/04 01:59:21;;;;;;;0.82;0.30;;;7.40;99.90;;;;;;4980647;28;20065;-89
2022/02/04 02:01:47;;;;;;;0.75;0.50;;;7.30;99.90;;;;;;4997232;28;20117;-90
2022/02/04 02:04:15;;;;;;;2.15;0.32;;;7.20;99.90;;;;;;4997243;28;20057;-91
2022/02/04 02:06:55;;;;;;;0.50;0.30;;;7.20;99.90;;;;;;4965607;28;20078;-91
2022/02/04 02:09:26;;;;;;;0.90;0.20;;;7.10;99.90;;;;;;4997490;28;20496;-89
2022/02/04 02:11:59;;;;;;;1.30;0.20;;;6.90;99.90;;;;;;4997638;28;20041;-90
2022/02/04 02:14:29;;;;;;;1.30;0.30;;;6.80;99.90;;;;;;5014728;28;20056;-91
2022/02/04 02:52:10;;;;;;;0.60;0.30;;;5.90;99.90;;;;;;5014945;28;20040;-90
2022/02/04 03:02:59;;;;;;;0.63;0.40;;;5.70;99.90;;;;;;4954152;29;20027;-91
2022/02/04 03:05:26;;;;;;;1.10;0.55;;;5.60;99.90;;;;;;4953787;29;20548;-90
2022/02/04 03:07:53;;;;;;;0.55;0.30;;;5.50;99.90;;;;;;4953563;28;20032;-89
2022/02/04 03:10:19;;;;;;;1.17;0.40;;;5.50;99.90;;;;;;4938212;29;20058;-89
2022/02/04 03:12:49;;;;;;;0.38;0.32;;;5.40;99.90;;;;;;4955576;29;20122;-91
2022/02/04 03:15:15;;;;;;;0.30;0.20;;;5.50;99.90;;;;;;4939481;29;20429;-90
2022/02/04 03:17:48;;;;;;;0.40;0.28;;;5.30;99.90;;;;;;4954170;29;20129;-91
2022/02/04 03:20:16;;;;;;;1.55;0.57;;;5.30;99.90;;;;;;4953853;29;20044;-91
2022/02/04 03:22:43;;;;;;;1.50;0.40;;;5.30;99.90;;;;;;4954123;29;20083;-91
2022/02/04 03:25:11;;;;;;;1.67;0.50;;;5.20;99.90;;;;;;4938190;29;20037;-93
2022/02/04 03:27:59;;;;;;;0.70;0.40;;;5.20;99.90;;;;;;4953586;29;20121;-92
2022/02/04 03:30:30;;;;;;;0.25;0.15;;;5.20;99.90;;;;;;4940817;29;20050;-92
2022/02/04 03:33:01;;;;;;;1.40;0.40;;;5.10;99.90;;;;;;4949878;28;20034;-91
2022/02/04 03:35:31;;;;;;;2.25;0.50;;;5.00;99.90;;;;;;4999109;28;20109;-92
2022/02/04 03:37:58;;;;;;;1.08;0.43;;;5.00;99.90;;;;;;4998064;28;20030;-92
2022/02/04 03:40:26;;;;;;;3.72;0.68;;;4.90;99.90;;;;;;4998251;28;20447;-92
2022/02/04 03:42:52;;;;;;;2.03;0.40;;;4.90;99.90;;;;;;4984463;28;20125;-91
2022/02/04 03:45:20;;;;;;;2.22;0.60;;;4.90;99.90;;;;;;5000151;28;20181;-90
2022/02/04 03:47:46;;;;;;;1.23;0.32;;;4.80;99.90;;;;;;5000621;28;20054;-91
2022/02/04 03:50:12;;;;;;;2.75;0.60;;;4.70;99.90;;;;;;5000155;28;20026;-92
2022/02/04 03:52:39;;;;;;;3.63;0.52;;;4.70;99.90;;;;;;5000155;28;20022;-93
2022/02/04 03:55:07;;;;;;;4.68;0.80;;;4.60;99.90;;;;;;5000129;28;20087;-91
2022/02/04 03:57:32;;;;;;;2.00;0.73;;;4.50;99.90;;;;;;5000663;28;20030;-92
2022/02/04 03:59:58;;;;;;;1.95;0.52;;;4.50;99.90;;;;;;5000221;28;20176;-92
2022/02/04 04:02:24;;;;;;;3.45;0.60;;;4.40;99.90;;;;;;5000043;28;20095;-91
2022/02/04 04:04:50;;;;;;;2.65;0.75;;;4.40;99.90;;;;;;4999436;28;20033;-91
2022/02/04 04:07:16;;;;;;;4.28;0.52;;;4.40;99.90;;;;;;4999716;28;20029;-91
2022/02/04 04:09:49;;;;;;;1.40;0.68;;;4.40;99.90;;;;;;4999807;28;20069;-92
2022/02/04 04:12:16;;;;;;;3.55;0.50;;;4.40;99.90;;;;;;4999618;28;20022;-92
2022/02/04 04:14:42;;;;;;;4.18;0.60;;;4.30;99.90;;;;;;4999447;28;20022;-91
2022/02/04 04:17:08;;;;;;;1.95;0.50;;;4.40;99.90;;;;;;4999704;28;20120;-92
2022/02/04 04:19:34;;;;;;;2.28;1.05;;;4.30;99.90;;;;;;4999874;28;20026;-91
2022/02/04 04:22:00;;;;;;;1.40;0.50;;;4.30;99.90;;;;;;5000037;28;20505;-91
2022/02/04 04:24:25;;;;;;;1.13;0.40;;;4.30;99.90;;;;;;4999758;28;20399;-91
2022/02/04 04:26:51;;;;;;;4.68;0.80;;;4.20;99.90;;;;;;5004950;28;20060;-90
2022/02/04 04:29:17;;;;;;;3.28;0.52;;;4.20;99.90;;;;;;5004625;28;20112;-91
2022/02/04 04:31:42;;;;;;;1.88;0.98;;;4.20;99.90;;;;;;4999776;28;20018;-91
2022/02/04 04:34:08;;;;;;;2.53;0.30;;;4.10;99.90;;;;;;4999566;28;20029;-90
2022/02/04 04:36:35;;;;;;;2.17;1.00;;;4.20;99.90;;;;;;4999333;28;20100;-91
2022/02/04 04:39:11;;;;;;;1.98;0.60;;;4.10;99.90;;;;;;4999557;28;20030;-90
2022/02/04 04:45:09;;;;;;;0.68;0.38;;;4.10;99.90;;;;;;4993971;28;20034;-93
2022/02/04 05:30:37;;;;;;;3.45;0.43;;;3.90;99.90;;;;;;5020007;28;20053;-92
2022/02/04 05:33:03;;;;;;;1.98;0.60;;;3.90;99.90;;;;;;4998174;28;20057;-91
2022/02/04 05:35:29;;;;;;;1.30;0.68;;;3.90;99.90;;;;;;4998192;28;20517;-91
2022/02/04 05:37:55;;;;;;;5.60;0.90;;;3.80;99.90;;;;;;4998095;28;20025;-91
2022/02/04 05:40:23;;;;;;;2.25;0.60;;;3.80;99.90;;;;;;4998198;28;20034;-90
2022/02/04 05:43:02;;;;;;;1.80;0.60;;;3.80;99.90;;;;;;4998260;28;20022;-90
2022/02/04 05:45:32;;;;;;;2.47;0.60;;;3.70;99.90;;;;;;4997944;28;20038;-90
2022/02/04 05:48:05;;;;;;;6.32;0.75;;;3.70;99.90;;;;;;4998922;28;20116;-90
2022/02/04 05:53:33;;;;;;;3.10;0.68;;;3.70;99.90;;;;;;4955834;29;20130;-90
2022/02/04 05:56:14;;;;;;;7.25;0.77;;;3.70;99.90;;;;;;4956249;29;20027;-92
2022/02/04 05:58:51;;;;;;;4.97;0.75;;;3.60;99.90;;;;;;4956576;29;20066;-90
2022/02/04 06:01:35;;;;;;;4.78;0.75;;;3.60;99.90;;;;;;4968870;29;20046;-90
2022/02/04 06:22:08;;;;;;;6.25;0.70;;;3.50;99.90;;;;;;4944623;29;20035;-90
2022/02/04 06:23:13;;;;;;;5.82;0.80;;;3.50;99.90;;;;;;4950454;29;20090;-90
2022/02/04 06:25:42;;;;;;;4.57;0.85;;;3.50;99.90;;;;;;4946017;29;20235;-90
2022/02/04 06:28:09;;;;;;;8.77;1.35;;;3.40;99.90;;;;;;4938968;29;20031;-89
2022/02/04 06:30:35;;;;;;;5.10;0.90;;;3.50;99.90;;;;;;4970914;28;20053;-90
2022/02/04 06:33:01;;;;;;;8.70;1.17;;;3.40;99.90;;;;;;4981782;28;20022;-90
2022/02/04 06:35:29;;;;;;;12.45;1.38;;;3.50;99.90;;;;;;4984086;28;20033;-91
2022/02/04 06:37:55;;;;;;;6.80;1.42;;;3.50;99.90;;;;;;4993266;28;20026;-90
2022/02/04 06:40:22;;;;;;;6.25;1.27;;;3.40;99.90;;;;;;4987880;28;20045;-92
2022/02/04 06:42:48;;;;;;;4.57;1.30;;;3.40;99.90;;;;;;4986649;28;20030;-90
2022/02/04 06:45:13;;;;;;;3.72;1.30;;;3.40;99.90;;;;;;4985674;28;20033;-90
2022/02/04 06:47:40;;;;;;;6.95;1.88;;;3.40;99.90;;;;;;4985429;28;20106;-90
2022/02/04 06:50:07;;;;;;;6.18;1.60;;;3.40;99.90;;;;;;4984372;28;20546;-91
2022/02/04 06:52:32;;;;;;;11.63;1.90;;;3.40;99.90;;;;;;4992692;28;20030;-90
2022/02/04 06:54:58;;;;;;;4.40;1.45;;;3.40;99.90;;;;;;4987364;28;20503;-91
2022/02/04 06:57:24;;;;;;;6.85;1.50;;;3.40;99.90;;;;;;4986913;28;20037;-91
2022/02/04 06:59:52;;;;;;;10.35;1.70;;;3.40;99.90;;;;;;4985541;28;20042;-91
2022/02/04 07:02:20;;;;;;;6.65;1.80;;;3.40;99.90;;;;;;4990046;28;20558;-90
2022/02/04 07:04:46;;;;;;;7.40;2.35;;;3.40;99.90;;;;;;4988191;28;20040;-90
2022/02/04 07:07:13;;;;;;;14.60;2.85;;;3.40;99.90;;;;;;4987197;28;20103;-89
2022/02/04 07:12:33;;;;;;;7.43;2.40;;;3.40;99.90;;;;;;5007347;28;20025;-90
2022/02/04 07:17:33;;;;;;;9.77;2.40;;;3.40;99.90;;;;;;5012966;28;20056;-90
2022/02/04 07:20:00;;;;;;;10.10;2.63;;;3.40;99.90;;;;;;4991253;28;20042;-89
2022/02/04 07:22:30;;;;;;;7.65;2.75;;;3.50;99.90;;;;;;4991897;28;20044;-91
2022/02/04 07:25:01;;;;;;;16.63;2.45;;;3.40;99.90;;;;;;4993779;28;20045;-90
2022/02/04 07:27:28;;;;;;;20.80;3.17;;;3.40;99.90;;;;;;5002970;28;20030;-90
2022/02/04 07:29:55;;;;;;;10.10;3.20;;;3.40;99.90;;;;;;4992589;28;20026;-91
2022/02/04 07:32:32;;;;;;;13.07;3.28;;;3.40;99.90;;;;;;4996662;28;20030;-90
2022/02/04 07:35:18;;;;;;;16.92;4.65;;;3.40;99.90;;;;;;4994495;28;20076;-91
2022/02/04 07:43:16;;;;;;;22.13;4.38;;;3.40;99.90;;;;;;5002922;28;20121;-89
2022/02/04 07:45:44;;;;;;;13.82;3.13;;;3.40;99.90;;;;;;4994429;28;20061;-91
2022/02/04 07:48:11;;;;;;;24.00;3.50;;;3.40;99.90;;;;;;4997520;28;20396;-93
2022/02/04 07:50:38;;;;;;;22.40;4.28;;;3.40;99.90;;;;;;4985361;28;20087;-92
2022/02/04 07:53:04;;;;;;;14.32;3.80;;;3.30;99.90;;;;;;4991386;28;20058;-88
2022/02/04 07:55:30;;;;;;;9.68;3.78;;;3.40;99.90;;;;;;5005877;28;20022;-91
2022/02/04 07:57:56;;;;;;;14.40;4.18;;;3.30;99.90;;;;;;5018026;28;20038;-93
2022/02/04 08:00:22;;;;;;;17.75;4.63;;;3.30;99.90;;;;;;5011304;28;20035;-91
2022/02/04 08:02:48;;;;;;;13.57;4.60;;;3.30;99.90;;;;;;4985723;28;20026;-92
2022/02/04 08:05:19;;;;;;;23.45;5.13;;;3.30;99.90;;;;;;4975378;28;20504;-92
2022/02/04 08:07:55;;;;;;;14.68;3.90;;;3.30;99.90;;;;;;4962543;28;20026;-92
2022/02/04 08:10:29;;;;;;;9.60;3.90;;;3.40;99.90;;;;;;4972403;28;20026;-92
2022/02/04 08:21:23;;;;;;;7.25;3.33;;;3.40;99.90;;;;;;4981025;28;20042;-92
2022/02/04 08:29:09;;;;;;;11.15;4.85;;;3.30;99.90;;;;;;4998448;28;20118;-90
2022/02/04 08:46:47;;;;;;;17.77;7.25;;;3.40;99.90;;;;;;5001907;28;20048;-92
2022/02/04 08:55:54;;;;;;;12.75;6.07;;;3.50;99.90;;;;;;4984825;28;20035;-92
2022/02/04 08:58:34;;;;;;;15.35;4.78;;;3.50;99.90;;;;;;4986797;28;20046;-93
2022/02/04 09:01:36;;;;;;;14.23;4.93;;;3.50;99.90;;;;;;4969030;28;20065;-93
2022/02/04 09:04:16;;;;;;;12.80;3.60;;;3.50;99.90;;;;;;4987414;28;20027;-93
2022/02/04 09:06:49;;;;;;;8.32;2.92;;;3.50;99.90;;;;;;4958907;28;20055;-92
2022/02/04 09:10:10;;;;;;;11.00;3.33;;;3.50;99.90;;;;;;4994238;28;20019;-93
2022/02/04 09:23:11;;;;;;;15.20;2.47;;;3.60;99.90;;;;;;4969987;28;20038;-92
2022/02/04 09:25:42;;;;;;;15.15;1.63;;;3.60;99.90;;;;;;4974142;28;20035;-92
2022/02/04 09:28:09;;;;;;;6.70;1.95;;;3.70;99.90;;;;;;4970637;28;20018;-94
2022/02/04 09:30:46;;;;;;;11.30;1.95;;;3.70;99.90;;;;;;4987480;28;20472;-92
2022/02/04 09:33:14;;;;;;;9.90;2.00;;;3.70;99.90;;;;;;4969986;28;20034;-93
2022/02/04 09:35:46;;;;;;;17.25;3.50;;;3.70;99.90;;;;;;4976942;28;20054;-93
2022/02/04 09:38:16;;;;;;;10.85;1.98;;;3.80;99.90;;;;;;4962218;28;20041;-94
2022/02/04 09:41:08;;;;;;;11.77;2.97;;;3.80;99.90;;;;;;4978207;28;20066;-94
2022/02/04 09:43:36;;;;;;;13.25;2.47;;;3.90;99.90;;;;;;4978569;28;20022;-94
2022/02/04 09:46:06;;;;;;;11.15;2.83;;;3.90;99.90;;;;;;4973741;28;20094;-91
2022/02/04 09:48:35;;;;;;;9.27;2.13;;;3.90;99.90;;;;;;4953191;28;20043;-93
2022/02/04 09:51:01;;;;;;;11.48;2.47;;;3.90;99.90;;;;;;4974367;28;20023;-93
2022/02/04 10:13:19;;;;;;;10.70;2.22;;;4.90;99.90;;;;;;5013225;28;20022;-92
2022/02/04 10:18:49;;;;;;;7.22;2.03;;;5.10;99.90;;;;;;5001426;28;19945;-93
2022/02/04 10:21:17;;;;;;;7.45;1.98;;;5.30;99.90;;;;;;4981952;28;20555;-93
2022/02/04 10:23:55;;;;;;;8.50;1.50;;;5.60;99.90;;;;;;4998700;28;20082;-92
2022/02/04 10:26:25;;;;;;;8.98;2.00;;;5.90;99.90;;;;;;4982826;28;20037;-93
2022/02/04 10:28:51;;;;;;;10.65;2.47;;;6.20;99.90;;;;;;4984082;28;20056;-92
2022/02/04 10:31:22;;;;;;;7.93;1.58;;;6.30;99.90;;;;;;4979424;28;20054;-92
2022/02/04 10:34:00;;;;;;;13.02;2.10;;;6.40;99.90;;;;;;4978790;28;20058;-93
2022/02/04 10:36:35;;;;;;;7.07;1.60;;;6.60;99.90;;;;;;4978888;28;20038;-92
2022/02/04 10:45:35;;;;;;;7.07;1.73;;;7.00;99.90;;;;;;4994743;28;20090;-92
2022/02/04 10:54:02;;;;;;;7.57;1.80;;;5.90;99.90;;;;;;5000798;28;20030;-94
2022/02/04 11:04:46;;;;;;;10.93;2.50;;;5.60;99.90;;;;;;4958977;28;20122;-93
2022/02/04 11:55:22;;;;;;;4.95;1.17;;;6.80;99.90;;;;;;4949993;29;20039;-95
2022/02/04 11:58:02;;;;;;;9.55;1.60;;;7.30;99.90;;;;;;4942093;29;20801;-93
2022/02/04 12:00:32;;;;;;;11.20;2.10;;;7.50;99.90;;;;;;4941455;29;20031;-93
2022/02/04 12:02:59;;;;;;;12.63;2.10;;;7.40;99.90;;;;;;4944887;29;20035;-96
2022/02/04 12:05:24;;;;;;;6.35;1.15;;;7.10;99.90;;;;;;4973132;28;20036;-96
2022/02/04 12:07:57;;;;;;;7.80;1.02;;;6.70;99.90;;;;;;4997464;28;20345;-94
2022/02/04 12:10:29;;;;;;;6.70;1.13;;;6.40;99.90;;;;;;4995682;28;20022;-93
2022/02/04 12:13:08;;;;;;;5.70;1.80;;;6.20;99.90;;;;;;4995561;28;20383;-96
2022/02/04 12:15:43;;;;;;;8.50;1.00;;;6.40;99.90;;;;;;4989897;28;20072;-93
2022/02/04 12:18:14;;;;;;;7.78;1.30;;;6.80;99.90;;;;;;4992050;28;20027;-91
2022/02/04 12:21:04;;;;;;;14.65;1.73;;;7.20;99.90;;;;;;4987676;28;20037;-93
2022/02/04 12:23:34;;;;;;;12.15;1.85;;;7.70;99.90;;;;;;4988463;28;20332;-94
2022/02/04 12:26:04;;;;;;;15.10;2.90;;;8.00;99.90;;;;;;4998000;28;20037;-94
2022/02/04 12:28:48;;;;;;;15.77;1.55;;;7.90;99.90;;;;;;4993698;28;20026;-94
2022/02/04 12:31:27;;;;;;;11.20;2.33;;;7.70;99.90;;;;;;4993971;28;20015;-93
2022/02/04 12:34:10;;;;;;;9.73;2.25;;;7.30;99.90;;;;;;4990709;28;20014;-94
2022/02/04 12:36:49;;;;;;;5.72;1.48;;;6.90;99.90;;;;;;4988444;28;20495;-94
2022/02/04 12:39:24;;;;;;;12.40;2.65;;;6.60;99.90;;;;;;4988899;28;20189;-93
2022/02/04 12:42:05;;;;;;;10.07;1.83;;;6.30;99.90;;;;;;4991262;28;20144;-92
2022/02/04 12:44:42;;;;;;;5.95;1.60;;;6.00;99.90;;;;;;4991160;28;20350;-94
2022/02/04 12:47:21;;;;;;;4.47;0.60;;;5.80;99.90;;;;;;4996676;28;20030;-96
2022/02/04 12:49:58;;;;;;;7.20;1.10;;;5.90;99.90;;;;;;4988674;28;20040;-93
2022/02/04 12:52:31;;;;;;;8.98;1.35;;;6.30;99.90;;;;;;4995364;28;20037;-95
2022/02/04 12:55:20;;;;;;;5.47;0.90;;;6.80;99.90;;;;;;4990785;28;20026;-94
2022/02/04 13:01:55;;;;;;;9.48;1.00;;;7.00;99.90;;;;;;5010449;28;20438;-93
2022/02/04 13:07:30;;;;;;;3.97;1.25;;;7.20;99.90;;;;;;4998237;28;20131;-94
2022/02/04 13:12:06;;;;;;;4.13;0.25;;;6.70;99.90;;;;;;5021504;28;20080;-94
2022/02/04 13:14:34;;;;;;;3.85;0.82;;;6.70;99.90;;;;;;5009535;28;20084;-95
2022/02/04 13:17:00;;;;;;;9.07;0.90;;;6.50;99.90;;;;;;5018269;28;20418;-94
2022/02/04 13:19:28;;;;;;;3.88;0.73;;;6.40;99.90;;;;;;5028864;28;20021;-94
2022/02/04 13:21:58;;;;;;;6.72;0.80;;;6.30;99.90;;;;;;5008261;28;20033;-95
2022/02/04 13:24:24;;;;;;;7.82;1.77;;;6.20;99.90;;;;;;5018408;28;20100;-94
2022/02/04 13:26:50;;;;;;;3.58;0.70;;;6.30;99.90;;;;;;5007136;28;20093;-95
2022/02/04 13:29:23;;;;;;;6.10;0.93;;;6.60;99.90;;;;;;4991000;28;20034;-93
2022/02/04 13:31:50;;;;;;;3.25;0.82;;;6.80;99.90;;;;;;5009975;28;20010;-95
2022/02/04 13:34:27;;;;;;;2.45;0.50;;;7.20;99.90;;;;;;5020896;28;20034;-95
2022/02/04 14:26:24;;;;;;;7.78;1.73;;;6.70;99.90;;;;;;5680181;23;20266;-95
2022/02/04 14:31:36;;;;;;;5.32;1.20;;;6.50;99.90;;;;;;5037749;28;20018;-95
2022/02/04 15:03:41;;;;;;;7.32;1.20;;;5.70;99.90;;;;;;5037732;28;20025;-95
2022/02/04 15:06:13;;;;;;;4.22;0.95;;;6.10;99.90;;;;;;5001633;28;20037;-96
2022/02/04 15:08:41;;;;;;;9.05;1.52;;;6.20;99.90;;;;;;5017183;28;20034;-94
2022/02/04 15:11:15;;;;;;;11.32;1.13;;;6.20;99.90;;;;;;5017057;28;20074;-94
2022/02/04 15:13:43;;;;;;;9.50;1.20;;;6.20;99.90;;;;;;5017308;28;20010;-95
2022/02/04 15:16:10;;;;;;;8.10;1.85;;;6.20;99.90;;;;;;5000998;28;20038;-94
2022/02/04 15:18:38;;;;;;;10.52;2.05;;;6.20;99.90;;;;;;5017103;28;20082;-94
2022/02/04 15:21:10;;;;;;;7.45;1.70;;;6.20;99.90;;;;;;5000866;28;20033;-94
2022/02/04 15:23:38;;;;;;;12.25;1.55;;;6.40;99.90;;;;;;5004947;28;20082;-95
2022/02/04 15:26:06;;;;;;;8.65;1.70;;;6.50;99.90;;;;;;4981599;28;20042;-95
2022/02/04 15:28:42;;;;;;;6.10;2.03;;;6.40;99.90;;;;;;4980672;28;20022;-94
2022/02/04 15:31:24;;;;;;;5.38;1.20;;;6.40;99.90;;;;;;4996199;28;20078;-96
2022/02/04 15:33:51;;;;;;;7.30;1.52;;;6.30;99.90;;;;;;4979754;28;20049;-94
2022/02/04 15:36:45;;;;;;;10.32;1.40;;;6.10;99.90;;;;;;4997595;28;20070;-95
2022/02/04 15:39:15;;;;;;;13.60;1.48;;;6.00;99.90;;;;;;4999364;28;20039;-96
2022/02/04 15:41:53;;;;;;;11.90;1.17;;;5.90;99.90;;;;;;4983844;28;20054;-95
2022/02/04 16:01:01;;;;;;;4.03;0.60;;;5.70;99.90;;;;;;4964879;28;20031;-95
2022/02/04 16:03:51;;;;;;;1.30;0.30;;;5.50;99.90;;;;;;4959309;29;20032;-94
2022/02/04 16:06:19;;;;;;;3.55;0.90;;;5.40;99.90;;;;;;4944036;29;20043;-92
2022/02/04 16:08:56;;;;;;;4.68;0.80;;;5.10;99.90;;;;;;4958824;28;20035;-95
2022/02/04 16:11:38;;;;;;;4.50;0.73;;;5.00;99.90;;;;;;4959816;29;20149;-95
2022/02/04 16:16:50;;;;;;;5.10;0.73;;;4.80;99.90;;;;;;4960193;29;20122;-95
2022/02/04 16:30:40;;;;;;;4.30;1.02;;;4.90;99.90;;;;;;4950380;29;20098;-93
2022/02/04 16:33:07;;;;;;;5.07;0.95;;;5.00;99.90;;;;;;4936967;29;20042;-94
2022/02/04 16:36:01;;;;;;;11.35;1.95;;;5.00;99.90;;;;;;4991020;28;20030;-96
2022/02/04 16:38:33;;;;;;;11.13;1.35;;;5.00;99.90;;;;;;4992123;28;20018;-94
2022/02/04 16:41:08;;;;;;;8.10;1.10;;;5.00;99.90;;;;;;4993719;28;20066;-95
2022/02/04 16:43:38;;;;;;;10.30;1.92;;;4.90;99.90;;;;;;5000876;28;20559;-94
2022/02/04 16:46:06;;;;;;;6.43;0.93;;;4.90;99.90;;;;;;5013417;28;20035;-94
2022/02/04 16:48:41;;;;;;;11.40;1.17;;;4.90;99.90;;;;;;4993814;28;20068;-95
2022/02/04 16:51:18;;;;;;;4.60;1.30;;;4.90;99.90;;;;;;4982428;28;20041;-94
2022/02/04 16:53:53;;;;;;;6.82;1.50;;;4.80;99.90;;;;;;5014177;28;20020;-94
2022/02/04 16:56:19;;;;;;;14.20;1.33;;;4.80;99.90;;;;;;4979563;28;20097;-95
2022/02/04 16:58:46;;;;;;;8.77;2.03;;;4.80;99.90;;;;;;5000520;28;20466;-96
2022/02/04 17:01:17;;;;;;;7.90;2.05;;;4.80;99.90;;;;;;5016674;28;20034;-94
2022/02/04 17:03:50;;;;;;;11.85;2.25;;;4.80;99.90;;;;;;5006529;28;20098;-94
2022/02/04 17:07:03;;;;;;;11.95;2.28;;;4.70;99.90;;;;;;5012612;28;20026;-94
2022/02/04 17:09:52;;;;;;;13.32;2.17;;;4.80;99.90;;;;;;5011901;28;20080;-94
2022/02/04 17:12:40;;;;;;;12.55;2.42;;;4.70;99.90;;;;;;5017302;28;20117;-94
2022/02/04 17:15:06;;;;;;;10.93;2.40;;;4.70;99.90;;;;;;5005613;28;20034;-92
2022/02/04 17:17:34;;;;;;;10.98;2.33;;;4.60;99.90;;;;;;5007758;28;20019;-95
2022/02/04 17:20:07;;;;;;;9.65;2.40;;;4.60;99.90;;;;;;5015605;28;20030;-95
2022/02/04 17:22:36;;;;;;;21.20;2.88;;;4.60;99.90;;;;;;4990793;28;20041;-94
2022/02/04 17:25:08;;;;;;;14.40;2.00;;;4.60;99.90;;;;;;5024805;28;20033;-92
2022/02/04 17:27:45;;;;;;;14.00;2.30;;;4.60;99.90;;;;;;5016353;28;20046;-93
2022/02/04 17:30:29;;;;;;;11.98;1.75;;;4.60;99.90;;;;;;4983001;28;20037;-93
2022/02/04 17:33:16;;;;;;;5.65;1.00;;;4.60;99.90;;;;;;4986409;28;20106;-95
2022/02/04 17:36:00;;;;;;;3.63;0.82;;;4.60;99.90;;;;;;4978741;28;20030;-94
2022/02/04 17:38:29;;;;;;;11.52;1.65;;;4.60;99.90;;;;;;4980545;28;20038;-93
2022/02/04 17:41:01;;;;;;;15.52;1.80;;;4.60;99.90;;;;;;4988353;28;20053;-93
2022/02/04 17:43:28;;;;;;;7.03;1.67;;;4.60;99.90;;;;;;4993556;28;20033;-94
2022/02/04 17:46:03;;;;;;;9.10;1.38;;;4.60;99.90;;;;;;4989087;28;20025;-93
2022/02/04 17:48:54;;;;;;;12.10;1.92;;;4.60;99.90;;;;;;4987529;28;20039;-90
2022/02/04 17:51:41;;;;;;;6.80;1.77;;;4.60;99.90;;;;;;4980734;28;20031;-93
2022/02/04 17:54:11;;;;;;;10.63;1.92;;;4.60;99.90;;;;;;4983426;28;20118;-92
2022/02/04 17:56:58;;;;;;;12.05;1.73;;;4.60;99.90;;;;;;4968498;28;20023;-91
2022/02/04 18:07:24;;;;;;;1.70;0.40;;;4.50;99.90;;;;;;4983168;28;20078;-93
2022/02/04 18:09:53;;;;;;;2.15;0.63;;;4.30;99.90;;;;;;4980644;28;20039;-92
2022/02/04 18:12:24;;;;;;;6.40;1.58;;;4.10;99.90;;;;;;4970025;28;20027;-92
2022/02/04 18:14:53;;;;;;;4.57;0.43;;;4.00;99.90;;;;;;4982325;28;20042;-91
2022/02/04 18:17:20;;;;;;;3.65;1.13;;;3.90;99.90;;;;;;4997950;28;20026;-92
2022/02/04 18:19:47;;;;;;;3.72;1.02;;;3.70;99.90;;;;;;4997468;28;20159;-93
2022/02/04 18:22:14;;;;;;;2.42;1.25;;;3.70;99.90;;;;;;4965414;28;20058;-91
2022/02/04 18:24:41;;;;;;;5.47;1.00;;;3.60;99.90;;;;;;4996934;28;20019;-92
2022/02/04 18:27:08;;;;;;;5.00;0.70;;;3.60;99.90;;;;;;5004359;28;20073;-92
2022/02/04 18:29:36;;;;;;;4.15;1.20;;;3.50;99.90;;;;;;5017276;28;20022;-92
2022/02/04 18:32:05;;;;;;;2.50;0.95;;;3.50;99.90;;;;;;5016186;28;20018;-93
2022/02/04 18:34:36;;;;;;;6.05;0.70;;;3.50;99.90;;;;;;5015523;28;20062;-93
2022/02/04 18:37:04;;;;;;;3.40;0.65;;;3.40;99.90;;;;;;5006641;28;20034;-95
2022/02/04 18:45:24;;;;;;;5.75;2.17;;;3.40;99.90;;;;;;4968583;28;20031;-95
2022/02/04 18:47:56;;;;;;;7.13;1.20;;;3.40;99.90;;;;;;4934261;29;20035;-95
2022/02/04 18:53:24;;;;;;;5.43;1.27;;;3.50;99.90;;;;;;4953242;28;20032;-95
2022/02/04 18:58:32;;;;;;;8.30;1.80;;;3.50;99.90;;;;;;4962039;28;20027;-96
2022/02/04 19:01:01;;;;;;;9.52;2.83;;;3.50;99.90;;;;;;4956108;28;20043;-92
2022/02/04 19:03:55;;;;;;;14.05;2.05;;;3.50;99.90;;;;;;4972663;28;20043;-93
2022/02/04 19:06:27;;;;;;;9.70;3.00;;;3.40;99.90;;;;;;4951770;29;20028;-94
2022/02/04 19:08:58;;;;;;;9.80;1.70;;;3.40;99.90;;;;;;4947446;29;20157;-94
2022/02/04 19:11:36;;;;;;;8.25;2.33;;;3.40;99.90;;;;;;4971555;28;20024;-93
2022/02/04 19:17:05;;;;;;;10.75;2.03;;;3.40;99.90;;;;;;4930953;28;20108;-93
2022/02/04 19:19:56;;;;;;;8.32;2.20;;;3.40;99.90;;;;;;4987669;28;20086;-95
2022/02/04 19:22:39;;;;;;;10.10;2.50;;;3.40;99.90;;;;;;5011030;28;20034;-95
2022/02/04 19:25:11;;;;;;;7.50;2.00;;;3.40;99.90;;;;;;4989030;28;20042;-93
2022/02/04 19:27:37;;;;;;;7.03;2.20;;;3.40;99.90;;;;;;4991950;28;20089;-94
2022/02/04 19:30:09;;;;;;;9.25;1.88;;;3.40;99.90;;;;;;4995141;28;20030;-94
2022/02/04 19:32:35;;;;;;;4.95;1.70;;;3.40;99.90;;;;;;4994168;28;20034;-94
2022/02/04 19:35:01;;;;;;;9.15;2.05;;;3.40;99.90;;;;;;5004806;28;20026;-91
2022/02/04 19:37:35;;;;;;;7.00;1.58;;;3.40;99.90;;;;;;5008235;28;20038;-93
2022/02/04 19:40:01;;;;;;;9.32;1.58;;;3.40;99.90;;;;;;4989086;28;20098;-93
2022/02/04 19:42:30;;;;;;;7.03;1.40;;;3.40;99.90;;;;;;4990516;28;20031;-92
2022/02/04 19:45:02;;;;;;;8.18;1.65;;;3.40;99.90;;;;;;5008408;28;20038;-95
2022/02/04 19:47:35;;;;;;;9.35;2.60;;;3.50;99.90;;;;;;5002517;28;20022;-94
2022/02/04 19:50:22;;;;;;;13.05;2.55;;;3.50;99.90;;;;;;5009476;28;20033;-93
2022/02/04 19:55:51;;;;;;;8.07;3.33;;;3.50;99.90;;;;;;4997367;28;20037;-92
2022/02/04 20:25:23;;;;;;;13.25;3.33;;;3.00;99.90;;;;;;4997363;28;20033;-91
2022/02/04 20:27:51;;;;;;;14.90;3.25;;;3.00;99.90;;;;;;4976491;28;20055;-90
2022/02/04 20:30:17;;;;;;;7.53;2.97;;;3.00;99.90;;;;;;4979015;28;20049;-92
2022/02/04 20:32:44;;;;;;;15.95;4.22;;;3.00;99.90;;;;;;4979050;28;20018;-91
2022/02/04 20:35:10;;;;;;;18.38;5.25;;;3.00;99.90;;;;;;4978472;28;20034;-91
2022/02/04 20:37:35;;;;;;;14.93;3.88;;;3.00;99.90;;;;;;4979374;28;20026;-91
2022/02/04 20:42:57;;;;;;;13.35;4.32;;;3.10;99.90;;;;;;4983004;28;20034;-91
2022/02/04 20:45:24;;;;;;;17.02;4.57;;;3.10;99.90;;;;;;4978703;28;20121;-94
2022/02/04 20:47:55;;;;;;;10.10;4.40;;;3.10;99.90;;;;;;4979755;28;20022;-91
2022/02/04 20:50:25;;;;;;;24.83;5.88;;;3.10;99.90;;;;;;4996260;28;20057;-91
2022/02/04 20:52:55;;;;;;;13.40;3.97;;;3.10;99.90;;;;;;4996143;28;20428;-92
2022/02/04 20:55:22;;;;;;;14.43;3.88;;;3.10;99.90;;;;;;4996927;28;20036;-90
2022/02/04 20:57:53;;;;;;;17.67;5.22;;;3.20;99.90;;;;;;4996242;28;20117;-93
2022/02/04 21:00:28;;;;;;;15.25;4.80;;;3.20;99.90;;;;;;4981393;28;20034;-90
2022/02/04 21:03:00;;;;;;;31.00;9.60;;;3.30;99.90;;;;;;4979701;28;20033;-92
2022/02/04 21:05:52;;;;;;;17.45;8.30;;;3.30;99.90;;;;;;4977847;28;20492;-92
2022/02/04 21:13:52;;;;;;;36.08;17.70;;;3.40;99.90;;;;;;5003019;28;20042;-91
2022/02/04 21:16:22;;;;;;;13.27;3.28;;;3.40;99.90;;;;;;5004197;28;20050;-92
2022/02/04 21:19:04;;;;;;;17.88;3.70;;;3.40;99.90;;;;;;4982862;28;20030;-91
2022/02/04 21:21:30;;;;;;;9.88;2.75;;;3.50;99.90;;;;;;4997321;28;20050;-92
2022/02/04 21:24:04;;;;;;;20.70;6.00;;;3.50;99.90;;;;;;4980820;28;20030;-91